Terminal Aerodrome Forecast
Issued by NWS

Home | Current Version | Previous Version | Graphics & Text | Print | Product List | Glossary On
Versions: 1 2 3 4 5 6 7 8 9 10 11 12 13 14 15 16 17 18 19 20 21 22 23 24
000
FTUS43 KLSX 281300 AAA
TAFSUS
TAF AMD
KSUS 281314Z 2813/2912 00000KT 6SM BR SKC
     FM281400 12006KT P6SM SCT040
     FM282000 13007KT P6SM VCTS SCT045CB BKN120
     FM290100 VRB04KT P6SM SCT120 BKN250=

USA.gov is the U.S. government's official web portal to all federal, state and local government web resources and services.